Abbottabad Weather



Abbottabad's Current Weather

Temprature 25o overcast clouds

overcast clouds

Rain: 0 %

Min Temprature25o
Max Temprature25o
Humidity53
Wind Speed2.68 m/h
Sun Rise06:14:03
Sun Set17:30:28
Current Time: 18-Oct-2019 15:49:44
Lat/Lon: 34.14, 73.21




Abbottabad's Geo Location



Abbottabad's Weather Forecast

Time Overall Temp Min Temp Max Temp Humidity Wind Speed Rain
18-Oct-2019 (Fri)
17:00:00 overcast clouds 21.820 21.780 21.820 57 1.52 m/h 0 %
20:00:00 scattered clouds 18.820 18.790 18.820 58 1.74 m/h 0 %
23:00:00 scattered clouds 18.400 18.378 18.400 47 2.21 m/h 0 %
19-Oct-2019 (Sat)
02:00:00 overcast clouds 17.780 17.768 17.780 44 1.46 m/h 0 %
05:00:00 overcast clouds 17.623 17.623 17.623 43 2.51 m/h 0 %
08:00:00 broken clouds 20.441 20.441 20.441 43 1.32 m/h 0 %
11:00:00 overcast clouds 24.460 24.460 24.460 32 2.17 m/h 0 %
14:00:00 overcast clouds 25.596 25.596 25.596 31 1.71 m/h 0 %
17:00:00 overcast clouds 20.212 20.212 20.212 52 3.91 m/h 0 %
20:00:00 overcast clouds 18.278 18.278 18.278 46 2.86 m/h 0 %
23:00:00 scattered clouds 17.837 17.837 17.837 43 2.61 m/h 0 %
20-Oct-2019 (Sun)
02:00:00 clear sky 17.347 17.347 17.347 43 2.59 m/h 0 %
05:00:00 clear sky 16.874 16.874 16.874 42 2.55 m/h 0 %
08:00:00 clear sky 20.342 20.342 20.342 42 2.32 m/h 0 %
11:00:00 clear sky 25.170 25.170 25.170 29 2.18 m/h 0 %
14:00:00 clear sky 26.822 26.822 26.822 27 3.03 m/h 0 %
17:00:00 scattered clouds 22.378 22.378 22.378 41 0.85 m/h 0 %
20:00:00 overcast clouds 19.852 19.852 19.852 41 1.83 m/h 0 %
23:00:00 overcast clouds 18.947 18.947 18.947 38 2.26 m/h 0 %
21-Oct-2019 (Mon)
02:00:00 scattered clouds 18.050 18.050 18.050 37 2.44 m/h 0 %
05:00:00 few clouds 17.411 17.411 17.411 38 2.45 m/h 0 %
08:00:00 clear sky 21.059 21.059 21.059 40 2.32 m/h 0 %
11:00:00 clear sky 26.187 26.187 26.187 27 2.28 m/h 0 %
14:00:00 clear sky 27.205 27.205 27.205 24 2.67 m/h 0 %
17:00:00 clear sky 22.584 22.584 22.584 37 1.37 m/h 0 %
20:00:00 clear sky 19.154 19.154 19.154 39 1.91 m/h 0 %
23:00:00 clear sky 18.600 18.600 18.600 37 2.9 m/h 0 %
22-Oct-2019 (Tue)
02:00:00 clear sky 17.806 17.806 17.806 36 2.86 m/h 0 %
05:00:00 clear sky 17.229 17.229 17.229 36 2.76 m/h 0 %
08:00:00 few clouds 20.822 20.822 20.822 37 2.09 m/h 0 %
11:00:00 clear sky 25.859 25.859 25.859 25 2.1 m/h 0 %
14:00:00 few clouds 27.109 27.109 27.109 24 2.65 m/h 0 %
17:00:00 scattered clouds 22.392 22.392 22.392 38 1.49 m/h 0 %
20:00:00 overcast clouds 20.350 20.350 20.350 38 2.32 m/h 0 %
23:00:00 light rain 20.019 20.019 20.019 36 1.88 m/h 6 %
23-Oct-2019 (Wed)
02:00:00 light rain 18.866 18.866 18.866 37 2.29 m/h 19 %
05:00:00 light rain 18.227 18.227 18.227 41 2.49 m/h 19 %
08:00:00 light rain 19.819 19.819 19.819 46 1.45 m/h 50 %
11:00:00 light rain 25.065 25.065 25.065 30 2.09 m/h 13 %
14:00:00 overcast clouds 26.829 26.829 26.829 25 1.82 m/h 0 %


Abbottabad's Tourist Spots

Historical Places in Abbottabad

Famous Cities (61)